Ralston, Wyoming
Current Conditions -  °F | °C
As of 7:35 PM on Thursday 20 Nov 2014 (Local Time) from KPOY Reporting Station
Clear Clear  
Wind Chill: -9°   Ceiling: Unl
Heat Index: -3°   Visibility: 10mi
Dew Point: -8°   Wind: 12mph
Humidity: 69%   Direction: 150°SSE
Pressure: 29.86"   Gusts: NA
Location:  44.72°N, 108.87°W
Report Text: KPOY 210235Z AUTO 15010KT 10SM CLR M03/M08 A2986 RMK AO2
Loading
Personal Weather Stations






























Interactive Weather Map New forecast layout! Learn more

10-Day Weather Forecast

Advertisements
Track Severe Weather on mobile